CDT,Max TemperatureF,Mean TemperatureF,Min TemperatureF,Max Dew PointF,MeanDew PointF,Min DewpointF,Max Humidity, Mean Humidity, Min Humidity, Max Sea Level PressureIn, Mean Sea Level PressureIn, Min Sea Level PressureIn, Max VisibilityMiles, Mean VisibilityMiles, Min VisibilityMiles, Max Wind SpeedMPH, Mean Wind SpeedMPH, Max Gust SpeedMPH,PrecipitationIn, CloudCover, Events, WindDirDegrees
2013-3-1,30,24,18,16,14,11,74,63,54,30.38,30.33,30.25,10,10,10,12,8,,0.00,4,,27
2013-3-2,28,18,9,12,8,5,88,63,39,30.39,30.31,30.20,10,10,10,6,4,,0.00,2,,64
2013-3-3,32,25,18,12,10,6,65,51,42,30.17,30.08,30.00,10,10,10,16,8,,0.00,5,,115
2013-3-4,28,26,23,22,19,12,88,79,53,30.05,29.98,29.93,10,3,0,17,11,26,0.17,8,Fog-Snow,98
2013-3-5,30,26,21,23,21,16,93,81,69,30.32,30.08,29.95,10,4,0,13,8,17,0.15,7,Fog-Snow,33
2013-3-6,28,22,12,18,15,11,92,74,58,30.44,30.38,30.29,10,10,6,12,6,,0.00,6,,333
2013-3-7,30,18,6,18,11,1,95,76,58,30.42,30.36,30.32,10,6,0,14,3,,0.00,0,Fog,124
2013-3-8,37,28,18,28,22,13,88,76,64,30.34,30.26,30.10,9,6,3,14,8,,0.00,1,,130
2013-3-9,37,35,33,36,34,28,100,95,76,30.09,29.80,29.68,5,2,0,12,8,,0.54,8,Fog-Rain,125
2013-3-10,35,32,30,34,28,22,100,80,72,29.96,29.87,29.75,10,9,2,18,12,29,0.02,8,Rain-Snow,3
2013-3-11,30,27,21,22,20,15,78,72,64,29.87,29.81,29.74,10,10,10,14,11,21,0.00,7,,331
2013-3-12,28,24,21,19,15,9,75,66,49,30.22,29.97,29.82,10,8,2,18,11,26,0.00,7,Snow,304
2013-3-13,30,21,12,18,12,8,84,68,49,30.41,30.34,30.23,10,10,10,15,8,,0.00,1,,272
2013-3-14,39,32,24,25,22,17,88,76,55,30.26,30.13,30.04,10,7,1,12,8,,0.01,5,Snow,146
2013-3-15,35,30,26,31,28,22,93,85,75,30.02,29.90,29.81,9,4,1,12,6,,0.10,8,Rain-Snow,47
2013-3-16,26,20,12,21,13,3,88,70,53,30.27,30.09,29.92,10,10,6,15,11,20,0.00,4,,334
2013-3-17,28,18,9,20,8,-1,72,60,51,30.30,30.12,29.88,10,10,10,17,10,21,0.00,5,,106
2013-3-18,30,21,12,28,16,3,93,77,65,29.86,29.70,29.59,10,5,0,23,16,32,0.10,8,Fog-Snow,239
2013-3-19,21,14,7,4,1,-3,73,60,44,30.24,30.07,29.82,10,10,10,22,16,29,0.00,1,,289
2013-3-20,21,12,5,4,-1,-6,64,56,47,30.27,30.21,30.16,10,10,2,21,14,28,0.00,0,,300
2013-3-21,27,14,3,8,3,-2,76,58,44,30.17,30.13,30.07,10,10,10,9,4,,0.00,0,,333
2013-3-22,34,20,7,15,10,3,84,62,42,30.13,30.11,30.07,10,10,9,8,2,,0.00,0,,255
2013-3-23,37,26,16,19,15,12,84,62,41,30.18,30.14,30.10,10,10,7,10,3,,0.00,0,,271
2013-3-24,33,29,26,25,21,18,93,73,56,30.12,30.05,29.97,10,8,2,17,6,22,0.00,7,Snow,5
2013-3-25,37,30,23,20,17,14,72,58,42,30.25,30.15,30.06,10,10,10,15,11,22,0.00,2,,339
2013-3-26,37,30,24,22,19,17,78,66,48,30.32,30.29,30.25,10,10,10,9,7,,0.00,5,,272
2013-3-27,41,29,19,22,18,14,92,63,36,30.37,30.35,30.33,10,8,4,7,2,,0.00,0,,218
2013-3-28,43,32,21,27,22,18,85,65,48,30.36,30.33,30.30,10,10,9,9,3,,0.00,2,,123
2013-3-29,48,39,30,36,31,25,79,70,58,30.30,30.22,30.07,10,10,8,14,6,,0.00,5,Rain,125
2013-3-30,53,44,34,42,37,30,93,76,63,30.05,29.90,29.86,10,7,4,14,10,,0.14,4,Rain-Thunderstorm,261
2013-3-31,41,32,24,32,25,13,93,71,38,30.12,29.89,29.79,10,7,2,24,11,32,0.00,5,,293